Time;durP1;ratioP1;P1;durP2;ratioP2;P2;SDS_P1;SDS_P2;PMS_P1;PMS_P2;Temp;Humidity;BMP_temperature;BMP_pressure;BME280_temperature;BME280_humidity;BME280_pressure;Samples;Min_cycle;Max_cycle;Signal;HPM_P1;HPM_P2
2023/07/27 06:09:12;;;;;;;;;1.33;1.33;;;;;22.30;53.49;100693.31;5114891;27;45680;-74
2023/07/27 06:11:37;;;;;;;;;1.67;1.00;;;;;22.46;53.19;100692.53;5099090;27;45587;-75
2023/07/27 06:14:03;;;;;;;;;1.00;1.00;;;;;22.64;53.30;100692.47;5097908;27;45888;-75
2023/07/27 06:16:28;;;;;;;;;1.00;1.00;;;;;22.85;53.12;100684.91;5100674;27;45425;-74
2023/07/27 06:18:53;;;;;;;;;1.00;1.00;;;;;23.04;52.96;100683.75;5100428;27;45922;-74
2023/07/27 06:21:19;;;;;;;;;2.67;1.00;;;;;23.20;52.91;100682.94;5096613;27;53867;-74
2023/07/27 06:23:44;;;;;;;;;1.00;1.00;;;;;23.38;52.61;100690.09;5098213;27;45481;-74
2023/07/27 06:26:10;;;;;;;;;1.00;1.00;;;;;23.53;52.39;100691.09;5102650;27;45609;-74
2023/07/27 06:28:35;;;;;;;;;0.00;0.00;;;;;23.68;51.89;100690.41;5097987;27;45937;-74
2023/07/27 06:31:02;;;;;;;;;1.00;1.00;;;;;23.81;51.93;100700.72;5105439;27;45969;-74
2023/07/27 06:33:27;;;;;;;;;0.67;0.67;;;;;23.94;51.54;100708.31;5100252;27;45810;-74
2023/07/27 06:35:52;;;;;;;;;0.33;0.33;;;;;24.05;51.08;100693.56;5099597;27;45504;-74
2023/07/27 06:38:18;;;;;;;;;0.00;0.00;;;;;24.14;51.21;100689.84;5094333;27;45626;-74
2023/07/27 06:40:43;;;;;;;;;0.00;0.00;;;;;24.24;50.94;100686.94;5095453;27;45558;-74
2023/07/27 06:43:08;;;;;;;;;0.33;0.33;;;;;24.31;50.47;100685.22;5102011;27;45502;-74
2023/07/27 06:45:34;;;;;;;;;1.00;0.33;;;;;24.40;50.22;100702.28;5104624;27;54342;-74
2023/07/27 06:47:59;;;;;;;;;1.67;0.00;;;;;24.45;50.07;100705.31;5107514;27;46006;-74
2023/07/27 06:50:25;;;;;;;;;0.00;0.00;;;;;24.54;50.04;100705.28;5104179;27;45633;-74
2023/07/27 06:52:50;;;;;;;;;2.00;2.00;;;;;24.58;50.25;100712.94;5098762;27;45379;-72
2023/07/27 06:55:17;;;;;;;;;3.00;1.00;;;;;24.60;50.05;100705.44;5099105;27;45547;-72
2023/07/27 06:57:42;;;;;;;;;0.33;0.33;;;;;24.66;50.01;100694.91;5090407;27;46212;-73
2023/07/27 07:00:08;;;;;;;;;5.00;2.00;;;;;24.73;49.82;100693.19;5092163;27;50281;-74
2023/07/27 07:02:34;;;;;;;;;2.67;2.00;;;;;24.78;49.08;100695.34;5095028;27;45735;-76
2023/07/27 07:04:59;;;;;;;;;0.33;0.33;;;;;24.82;48.87;100692.13;5101437;27;45715;-75
2023/07/27 07:07:25;;;;;;;;;0.00;0.00;;;;;24.86;48.78;100687.19;5099981;27;45903;-75
2023/07/27 07:09:52;;;;;;;;;1.00;1.00;;;;;24.88;48.36;100701.41;5103186;27;45399;-76
2023/07/27 07:12:18;;;;;;;;;1.00;1.00;;;;;24.91;48.62;100698.38;5098647;27;45474;-75
2023/07/27 07:14:43;;;;;;;;;3.00;1.00;;;;;24.92;48.00;100691.91;5101141;27;45801;-75
2023/07/27 07:17:08;;;;;;;;;0.33;0.33;;;;;24.96;48.48;100705.94;5100488;27;46111;-76
2023/07/27 07:19:34;;;;;;;;;2.00;0.33;;;;;24.97;48.69;100696.81;5089349;27;45556;-74
2023/07/27 07:21:59;;;;;;;;;1.00;1.00;;;;;25.01;48.67;100711.69;5084268;27;45504;-75
2023/07/27 07:24:24;;;;;;;;;1.00;1.00;;;;;25.03;48.84;100720.53;5076778;27;45851;-76
2023/07/27 07:26:50;;;;;;;;;0.00;0.00;;;;;25.05;48.50;100715.75;5074805;27;46219;-76
2023/07/27 07:29:15;;;;;;;;;0.00;0.00;;;;;25.09;48.65;100703.50;5074416;27;58586;-77
2023/07/27 07:31:40;;;;;;;;;1.00;0.00;;;;;25.10;48.60;100701.63;5073264;27;45735;-77
2023/07/27 07:34:06;;;;;;;;;0.33;0.33;;;;;25.11;48.35;100704.19;5075881;27;54932;-77
2023/07/27 07:36:31;;;;;;;;;2.00;0.00;;;;;25.15;48.06;100701.94;5085795;27;54377;-80
2023/07/27 07:38:56;;;;;;;;;1.00;1.00;;;;;25.17;48.21;100705.31;5073661;27;45555;-77
2023/07/27 07:41:22;;;;;;;;;0.00;0.00;;;;;25.19;48.18;100707.84;5073587;27;45853;-78
2023/07/27 07:43:47;;;;;;;;;0.00;0.00;;;;;25.20;47.88;100713.09;5076160;27;45887;-78
2023/07/27 07:46:13;;;;;;;;;0.00;0.00;;;;;25.20;48.07;100707.69;5082121;27;46239;-79
2023/07/27 07:48:39;;;;;;;;;0.33;0.00;;;;;25.22;47.65;100713.75;5077423;27;45782;-77
2023/07/27 07:51:12;;;;;;;;;0.00;0.00;;;;;25.23;47.48;100717.34;5078964;27;45489;-79
2023/07/27 07:53:37;;;;;;;;;0.00;0.00;;;;;25.25;47.82;100710.69;5083659;27;45524;-80
2023/07/27 07:56:03;;;;;;;;;0.00;0.00;;;;;25.25;47.86;100712.56;5079347;27;46067;-77
2023/07/27 07:58:29;;;;;;;;;1.00;1.00;;;;;25.25;47.22;100707.97;5079711;27;45593;-77
2023/07/27 08:00:55;;;;;;;;;0.33;0.33;;;;;25.27;47.56;100707.81;5078154;27;45674;-73
2023/07/27 08:03:20;;;;;;;;;3.00;1.00;;;;;25.29;47.73;100713.06;5081332;27;45542;-76
2023/07/27 08:05:45;;;;;;;;;0.00;0.00;;;;;25.27;47.48;100711.34;5077037;27;45450;-75
2023/07/27 08:08:11;;;;;;;;;0.00;0.00;;;;;25.30;47.10;100715.56;5078477;27;45607;-76
2023/07/27 08:10:36;;;;;;;;;0.00;0.00;;;;;25.31;47.16;100708.28;5081391;27;45386;-76
2023/07/27 08:13:01;;;;;;;;;1.00;0.00;;;;;25.32;47.07;100701.81;5077951;27;51608;-76
2023/07/27 08:15:27;;;;;;;;;2.00;0.00;;;;;25.34;47.09;100710.63;5079325;27;46093;-76
2023/07/27 08:17:53;;;;;;;;;0.00;0.00;;;;;25.35;46.89;100709.59;5075097;27;45916;-76
2023/07/27 08:20:18;;;;;;;;;0.00;0.00;;;;;25.35;47.26;100707.75;5087080;27;45542;-77
2023/07/27 08:22:44;;;;;;;;;1.00;1.00;;;;;25.37;47.03;100718.41;5084287;27;45440;-77
2023/07/27 08:25:09;;;;;;;;;0.00;0.00;;;;;25.37;47.05;100713.81;5082744;27;45654;-77
2023/07/27 08:27:35;;;;;;;;;1.00;1.00;;;;;25.37;46.69;100712.97;5084793;27;45503;-75
2023/07/27 08:30:02;;;;;;;;;0.00;0.00;;;;;25.39;46.44;100713.66;5083975;27;45684;-76
2023/07/27 08:32:27;;;;;;;;;0.67;0.67;;;;;25.41;46.38;100708.88;5081588;27;46126;-75
2023/07/27 08:34:53;;;;;;;;;0.00;0.00;;;;;25.37;46.79;100699.38;5086659;27;47515;-74
2023/07/27 08:37:18;;;;;;;;;0.00;0.00;;;;;25.41;46.67;100699.88;5076875;27;45395;-76
2023/07/27 08:39:43;;;;;;;;;0.00;0.00;;;;;25.42;46.08;100696.13;5075948;27;45501;-74
2023/07/27 08:42:14;;;;;;;;;1.33;1.00;;;;;25.42;46.38;100696.97;5087273;27;45386;-77
2023/07/27 08:44:43;;;;;;;;;0.00;0.00;;;;;25.44;46.20;100694.94;5085481;27;46265;-75
2023/07/27 08:47:09;;;;;;;;;0.33;0.33;;;;;25.44;46.20;100691.34;5089698;27;45629;-76
2023/07/27 08:49:36;;;;;;;;;0.00;0.00;;;;;25.44;46.66;100692.22;5088181;27;45600;-76
2023/07/27 08:52:02;;;;;;;;;1.00;1.00;;;;;25.44;46.26;100694.94;5088830;27;45547;-76
2023/07/27 08:54:28;;;;;;;;;0.00;0.00;;;;;25.45;46.34;100696.63;5088547;27;46575;-76
2023/07/27 08:56:54;;;;;;;;;1.00;1.00;;;;;25.46;46.28;100692.03;5091816;27;45654;-75
2023/07/27 08:59:19;;;;;;;;;1.33;1.00;;;;;25.45;46.19;100696.63;5090896;27;54094;-75
2023/07/27 09:01:44;;;;;;;;;2.00;1.00;;;;;25.45;46.45;100687.59;5079826;27;45571;-75
2023/07/27 09:04:10;;;;;;;;;0.33;0.33;;;;;25.45;46.78;100674.03;5089464;27;51186;-75
2023/07/27 09:06:37;;;;;;;;;1.00;1.00;;;;;25.45;46.27;100671.31;5087942;27;46137;-75
2023/07/27 09:09:22;;;;;;;;;1.00;0.33;;;;;25.43;46.32;100676.94;5077968;27;45384;-78
2023/07/27 09:11:47;;;;;;;;;0.00;0.00;;;;;25.42;46.58;100680.66;5082080;27;45644;-84
2023/07/27 09:14:14;;;;;;;;;2.00;0.67;;;;;25.43;46.18;100676.09;5081544;27;45577;-77
2023/07/27 09:16:39;;;;;;;;;1.00;1.00;;;;;25.43;46.57;100685.09;5073548;27;45375;-78
2023/07/27 09:19:06;;;;;;;;;1.00;1.00;;;;;25.45;46.58;100685.75;5084971;27;46015;-75
2023/07/27 09:21:52;;;;;;;;;1.00;1.00;;;;;25.46;46.17;100692.03;5086914;27;45537;-76
2023/07/27 09:24:18;;;;;;;;;0.00;0.00;;;;;25.47;46.70;100693.72;5083482;27;46593;-77
2023/07/27 09:26:49;;;;;;;;;2.00;1.00;;;;;25.50;46.52;100699.63;5080484;27;46321;-77
2023/07/27 09:29:16;;;;;;;;;1.00;1.00;;;;;25.50;46.18;100704.22;5085874;27;45545;-78
2023/07/27 09:31:49;;;;;;;;;0.67;0.33;;;;;25.53;46.29;100707.41;5084783;27;45605;-78
2023/07/27 09:34:16;;;;;;;;;2.00;0.00;;;;;25.52;46.40;100692.16;5087236;27;47679;-78
2023/07/27 09:36:42;;;;;;;;;0.00;0.00;;;;;25.55;45.98;100695.50;5079286;27;46162;-78
2023/07/27 09:39:09;;;;;;;;;2.00;1.00;;;;;25.55;46.15;100698.22;5083842;27;45397;-79
2023/07/27 09:41:34;;;;;;;;;0.33;0.33;;;;;25.57;46.19;100696.19;5073525;27;45527;-79
2023/07/27 09:43:59;;;;;;;;;0.00;0.00;;;;;25.57;46.62;100691.63;5087546;27;46500;-78
2023/07/27 09:46:25;;;;;;;;;1.00;1.00;;;;;25.58;46.29;100684.31;5083023;27;45559;-79
2023/07/27 09:48:51;;;;;;;;;0.00;0.00;;;;;25.58;46.08;100687.88;5085063;27;45496;-78
2023/07/27 09:51:17;;;;;;;;;1.00;1.00;;;;;25.58;46.11;100690.59;5078675;27;45770;-77
2023/07/27 09:53:45;;;;;;;;;1.67;0.00;;;;;25.60;45.84;100684.97;5075705;27;46799;-76
2023/07/27 09:56:14;;;;;;;;;2.00;1.00;;;;;25.61;46.20;100682.06;5083296;27;45631;-77
2023/07/27 09:58:41;;;;;;;;;1.00;1.00;;;;;25.63;46.24;100682.72;5090347;27;45431;-76
2023/07/27 10:01:07;;;;;;;;;2.67;1.00;;;;;25.64;45.99;100679.00;5086973;27;45384;-77
2023/07/27 10:03:33;;;;;;;;;1.00;1.00;;;;;25.65;46.20;100680.69;5077492;27;46159;-78
2023/07/27 10:06:01;;;;;;;;;1.00;1.00;;;;;25.67;46.00;100680.50;5074159;27;45829;-78
2023/07/27 10:08:29;;;;;;;;;1.00;1.00;;;;;25.66;45.78;100684.22;5077815;27;45808;-81
2023/07/27 10:10:59;;;;;;;;;0.67;0.67;;;;;25.69;45.96;100688.44;5084153;27;45984;-82
2023/07/27 10:13:25;;;;;;;;;0.33;0.33;;;;;25.70;45.48;100698.31;5079267;27;45858;-81
2023/07/27 10:15:56;;;;;;;;;0.33;0.33;;;;;25.71;45.86;100683.69;5084660;27;45574;-81
2023/07/27 10:18:31;;;;;;;;;0.00;0.00;;;;;25.70;46.05;100688.25;5080430;27;45585;-80
2023/07/27 10:21:28;;;;;;;;;2.00;2.00;;;;;25.72;46.05;100680.78;5072559;27;45912;-81
2023/07/27 10:24:03;;;;;;;;;1.00;1.00;;;;;25.73;45.95;100677.03;5080133;27;46237;-83
2023/07/27 10:26:49;;;;;;;;;1.33;1.33;;;;;25.73;45.65;100685.19;5086054;27;45726;-82
2023/07/27 10:29:23;;;;;;;;;2.67;2.67;;;;;25.72;45.76;100688.94;5087170;27;45604;-75
2023/07/27 10:32:08;;;;;;;;;9.00;5.33;;;;;25.73;45.33;100690.63;5080596;27;45403;-78
2023/07/27 10:34:35;;;;;;;;;1.33;1.33;;;;;25.74;45.81;100688.72;5084662;27;46038;-80
2023/07/27 10:37:03;;;;;;;;;2.00;1.00;;;;;25.74;46.04;100694.16;5083574;27;45897;-75
2023/07/27 10:39:45;;;;;;;;;2.33;1.67;;;;;25.76;45.45;100703.81;5078840;27;45535;-76
2023/07/27 10:42:13;;;;;;;;;2.00;0.00;;;;;25.74;45.36;100692.31;5081182;27;45581;-77
2023/07/27 10:44:43;;;;;;;;;2.67;2.67;;;;;25.78;45.91;100690.06;5089573;27;47530;-76
2023/07/27 10:47:11;;;;;;;;;2.00;2.00;;;;;25.79;45.28;100684.44;5073866;27;45463;-77
2023/07/27 10:49:48;;;;;;;;;1.00;1.00;;;;;25.83;45.73;100690.34;5084436;27;45603;-78
2023/07/27 10:52:18;;;;;;;;;4.00;2.00;;;;;25.83;45.99;100679.47;5083311;27;45477;-76
2023/07/27 10:54:45;;;;;;;;;2.00;2.00;;;;;25.87;45.49;100690.84;5085274;27;48657;-77
2023/07/27 10:57:12;;;;;;;;;3.00;3.00;;;;;25.89;45.14;100683.31;5074611;27;45394;-75
2023/07/27 10:59:43;;;;;;;;;2.00;2.00;;;;;25.91;45.69;100681.25;5074823;27;45344;-75
2023/07/27 11:02:20;;;;;;;;;1.33;1.33;;;;;25.91;45.21;100684.81;5085066;27;45828;-75
2023/07/27 11:04:48;;;;;;;;;1.00;1.00;;;;;25.93;45.89;100684.66;5084309;27;46761;-74
2023/07/27 11:07:23;;;;;;;;;1.33;1.00;;;;;25.93;46.11;100684.66;5092820;27;45733;-74
2023/07/27 11:09:48;;;;;;;;;2.33;2.00;;;;;25.95;45.95;100693.44;5079316;27;45595;-76
2023/07/27 11:12:14;;;;;;;;;3.00;2.00;;;;;25.97;45.66;100698.72;5085572;27;46889;-75
2023/07/27 11:14:40;;;;;;;;;1.67;1.67;;;;;25.96;45.79;100688.88;5083931;27;46398;-76
2023/07/27 11:17:05;;;;;;;;;2.33;2.00;;;;;26.00;45.31;100679.31;5082505;27;45504;-76
2023/07/27 11:19:30;;;;;;;;;2.33;2.33;;;;;25.98;45.42;100674.06;5080581;27;45843;-75
2023/07/27 11:21:56;;;;;;;;;2.00;2.00;;;;;26.02;45.44;100680.81;5086291;27;45653;-75
2023/07/27 11:24:22;;;;;;;;;2.00;2.00;;;;;26.02;45.72;100677.22;5090968;27;46408;-75
2023/07/27 11:26:47;;;;;;;;;2.67;2.67;;;;;26.04;45.30;100677.91;5076783;27;45611;-77
2023/07/27 11:29:12;;;;;;;;;4.00;1.00;;;;;26.05;46.04;100685.03;5080524;27;45387;-77
2023/07/27 11:31:38;;;;;;;;;1.33;1.33;;;;;26.07;45.76;100682.94;5085827;27;45595;-76
2023/07/27 11:34:04;;;;;;;;;4.00;2.33;;;;;26.05;45.89;100677.72;5079920;27;46344;-74
2023/07/27 11:36:31;;;;;;;;;1.33;1.33;;;;;26.04;45.60;100677.91;5087218;27;45432;-74
2023/07/27 11:39:02;;;;;;;;;3.00;1.67;;;;;26.05;44.89;100682.31;5086497;27;45450;-75
2023/07/27 11:41:30;;;;;;;;;5.00;3.67;;;;;26.04;45.33;100676.00;5086171;27;45958;-75
2023/07/27 11:43:57;;;;;;;;;3.00;2.67;;;;;26.02;45.23;100679.97;5086770;27;45402;-76
2023/07/27 11:46:26;;;;;;;;;3.00;3.00;;;;;26.02;44.84;100678.09;5075240;27;46416;-77
2023/07/27 11:48:51;;;;;;;;;3.33;2.00;;;;;26.00;45.10;100682.03;5076253;27;45491;-77
2023/07/27 11:51:17;;;;;;;;;4.00;2.33;;;;;25.99;45.14;100667.56;5075915;27;45758;-74
2023/07/27 11:53:47;;;;;;;;;4.00;4.00;;;;;25.98;45.30;100674.06;5078001;27;46090;-72
2023/07/27 11:56:13;;;;;;;;;6.00;4.00;;;;;25.95;44.93;100665.44;5090891;27;45568;-73
2023/07/27 11:58:40;;;;;;;;;3.33;2.33;;;;;25.92;45.20;100675.63;5083178;27;46996;-73
2023/07/27 12:01:06;;;;;;;;;3.67;3.67;;;;;25.91;45.73;100673.94;5087260;27;45463;-73
2023/07/27 12:03:31;;;;;;;;;3.00;3.00;;;;;25.90;45.25;100671.41;5090221;27;45599;-74
2023/07/27 12:06:02;;;;;;;;;4.00;4.00;;;;;25.90;45.52;100671.41;5080989;27;46003;-75
2023/07/27 12:08:29;;;;;;;;;5.33;5.33;;;;;25.89;45.45;100667.00;5086486;27;45400;-76
2023/07/27 12:10:59;;;;;;;;;4.33;3.00;;;;;25.88;46.10;100668.88;5082292;27;45464;-76
2023/07/27 12:13:25;;;;;;;;;5.33;5.00;;;;;25.89;45.88;100670.59;5079065;27;45779;-75
2023/07/27 12:16:00;;;;;;;;;3.67;3.67;;;;;25.90;45.90;100665.97;5079409;27;45481;-76
2023/07/27 12:18:30;;;;;;;;;5.00;3.33;;;;;25.90;46.65;100666.84;5078694;27;45589;-74
2023/07/27 12:20:56;;;;;;;;;3.67;3.67;;;;;25.93;45.90;100673.78;5081759;27;45691;-75
2023/07/27 12:23:23;;;;;;;;;4.00;4.00;;;;;25.96;46.07;100662.53;5084797;27;45547;-75
2023/07/27 12:25:49;;;;;;;;;4.33;4.33;;;;;25.99;46.54;100662.13;5074170;27;45722;-73
2023/07/27 12:28:16;;;;;;;;;4.00;2.00;;;;;26.02;46.01;100669.06;5089632;27;45587;-75
2023/07/27 12:30:41;;;;;;;;;3.33;3.33;;;;;26.04;46.08;100669.75;5078889;27;45774;-76
2023/07/27 12:33:06;;;;;;;;;4.67;3.33;;;;;26.08;46.10;100675.66;5085979;27;47023;-74
2023/07/27 12:35:32;;;;;;;;;3.67;3.67;;;;;26.05;46.13;100655.97;5089091;27;45530;-74
2023/07/27 12:37:58;;;;;;;;;7.67;5.00;;;;;26.10;46.10;100652.69;5084342;27;45623;-76
2023/07/27 12:40:25;;;;;;;;;3.67;3.67;;;;;26.11;46.13;100659.78;5084312;27;45549;-76
2023/07/27 12:42:50;;;;;;;;;6.00;6.00;;;;;26.12;46.35;100647.88;5080691;27;45687;-76
2023/07/27 12:45:16;;;;;;;;;2.33;2.33;;;;;26.15;46.06;100654.81;5081039;27;45575;-75
2023/07/27 12:47:42;;;;;;;;;4.33;4.00;;;;;26.15;46.20;100652.09;5084581;27;46659;-75
2023/07/27 12:50:09;;;;;;;;;6.33;4.00;;;;;26.14;46.27;100644.97;5074507;27;45992;-75
2023/07/27 12:52:34;;;;;;;;;4.00;4.00;;;;;26.15;46.25;100652.94;5084247;27;45623;-77
2023/07/27 12:55:00;;;;;;;;;3.33;3.33;;;;;26.15;46.41;100657.53;5089956;27;45580;-77
2023/07/27 12:57:25;;;;;;;;;3.00;3.00;;;;;26.15;46.15;100660.25;5092585;27;45898;-75
2023/07/27 12:59:50;;;;;;;;;4.33;3.33;;;;;26.15;45.91;100652.94;5083380;27;45659;-74
2023/07/27 13:02:15;;;;;;;;;3.00;3.00;;;;;26.16;46.71;100653.81;5081753;27;59598;-76
2023/07/27 13:04:41;;;;;;;;;4.33;3.00;;;;;26.13;46.28;100644.16;5090487;27;52953;-75
2023/07/27 13:07:12;;;;;;;;;4.00;4.00;;;;;26.14;45.87;100658.56;5083369;27;45575;-75
2023/07/27 13:09:37;;;;;;;;;5.00;5.00;;;;;26.10;46.86;100652.69;5087996;27;45538;-75
2023/07/27 13:12:03;;;;;;;;;3.67;3.67;;;;;26.06;46.76;100654.06;5090733;27;45796;-75
2023/07/27 13:14:28;;;;;;;;;5.33;4.33;;;;;26.04;46.51;100648.00;5083627;27;45512;-73
2023/07/27 13:16:53;;;;;;;;;2.33;2.33;;;;;25.98;46.32;100633.25;5080850;27;48131;-76
2023/07/27 13:19:18;;;;;;;;;5.00;3.00;;;;;25.99;46.74;100642.28;5087016;27;45621;-77
2023/07/27 13:21:44;;;;;;;;;3.67;3.00;;;;;25.99;46.60;100640.38;5084207;27;56150;-77
2023/07/27 13:24:09;;;;;;;;;3.00;3.00;;;;;25.99;46.06;100636.84;5089533;27;45284;-77
2023/07/27 13:26:34;;;;;;;;;3.67;3.33;;;;;25.97;46.74;100645.19;5081249;27;45614;-78
2023/07/27 13:29:00;;;;;;;;;4.33;2.33;;;;;25.96;46.46;100634.50;5078255;27;45721;-77
2023/07/27 13:31:26;;;;;;;;;3.33;3.33;;;;;25.97;47.00;100639.75;5074982;27;45660;-78
2023/07/27 13:33:51;;;;;;;;;3.67;3.67;;;;;25.97;46.83;100633.44;5086040;27;45501;-77
2023/07/27 13:36:17;;;;;;;;;2.00;2.00;;;;;25.97;46.41;100631.59;5078360;27;45598;-77
2023/07/27 13:38:42;;;;;;;;;4.00;3.00;;;;;25.98;46.95;100633.25;5086647;27;45574;-79
2023/07/27 13:41:07;;;;;;;;;2.00;2.00;;;;;25.99;46.81;100634.94;5087269;27;45991;-78
2023/07/27 13:43:33;;;;;;;;;2.33;2.33;;;;;25.98;46.93;100625.09;5088110;27;46109;-79
2023/07/27 13:45:58;;;;;;;;;6.00;5.67;;;;;26.01;47.44;100627.47;5081618;27;45461;-80
2023/07/27 13:48:25;;;;;;;;;4.00;4.00;;;;;26.02;46.96;100634.59;5086236;27;45663;-72
2023/07/27 13:50:50;;;;;;;;;7.00;4.00;;;;;26.03;46.47;100630.81;5091432;27;45668;-70
2023/07/27 13:53:15;;;;;;;;;5.00;2.00;;;;;26.04;46.34;100623.53;5089266;27;45501;-70
2023/07/27 13:55:41;;;;;;;;;4.33;4.33;;;;;26.03;46.26;100627.25;5093082;27;45662;-72
2023/07/27 13:58:06;;;;;;;;;4.00;4.00;;;;;26.00;46.73;100622.22;5091430;27;45451;-72
2023/07/27 14:00:31;;;;;;;;;5.33;3.67;;;;;26.00;46.76;100628.47;5084129;27;45729;-70
2023/07/27 14:02:56;;;;;;;;;5.00;3.33;;;;;25.99;46.17;100620.53;5081612;27;45569;-70
2023/07/27 14:05:22;;;;;;;;;2.67;2.67;;;;;25.99;46.13;100621.34;5088799;27;53079;-70
2023/07/27 14:07:47;;;;;;;;;4.00;4.00;;;;;25.98;46.63;100618.81;5081374;27;45962;-69
2023/07/27 14:10:13;;;;;;;;;4.67;3.67;;;;;26.01;46.70;100622.03;5082616;27;45607;-68
2023/07/27 14:12:39;;;;;;;;;4.67;3.00;;;;;26.02;46.59;100612.81;5090738;27;45456;-68
2023/07/27 14:15:04;;;;;;;;;3.00;3.00;;;;;26.02;46.36;100620.97;5080667;27;45517;-71
2023/07/27 14:17:30;;;;;;;;;5.67;3.00;;;;;26.07;46.49;100622.31;5089486;27;45800;-69
2023/07/27 14:19:56;;;;;;;;;4.67;4.00;;;;;26.07;46.59;100623.13;5087200;27;47032;-70
2023/07/27 14:22:22;;;;;;;;;3.33;3.33;;;;;26.10;46.70;100624.63;5088190;27;45613;-69
2023/07/27 14:24:47;;;;;;;;;4.00;3.00;;;;;26.08;47.08;100622.13;5089177;27;45637;-69
2023/07/27 14:27:13;;;;;;;;;5.00;2.33;;;;;26.13;46.57;100633.28;5090671;27;45777;-71
2023/07/27 14:29:38;;;;;;;;;2.33;2.33;;;;;26.15;46.93;100633.06;5091493;27;46390;-70
2023/07/27 14:32:04;;;;;;;;;2.00;2.00;;;;;26.15;46.69;100636.63;5093909;27;45512;-71
2023/07/27 14:34:29;;;;;;;;;8.33;3.67;;;;;26.17;46.79;100631.84;5079736;27;45470;-71
2023/07/27 14:36:54;;;;;;;;;3.00;2.67;;;;;26.13;46.70;100614.22;5090399;27;45485;-70
2023/07/27 14:39:20;;;;;;;;;4.67;3.00;;;;;26.08;45.95;100611.25;5093821;27;46208;-70
2023/07/27 14:41:46;;;;;;;;;4.33;3.00;;;;;26.17;45.95;100623.66;5095162;27;45597;-71
2023/07/27 14:44:11;;;;;;;;;2.33;2.33;;;;;26.17;45.77;100629.13;5087910;27;45585;-70
2023/07/27 14:46:36;;;;;;;;;1.00;1.00;;;;;26.17;45.82;100631.84;5093717;27;45632;-70
2023/07/27 14:49:02;;;;;;;;;4.00;4.00;;;;;26.13;46.59;100626.97;5090846;27;46886;-70
2023/07/27 14:51:27;;;;;;;;;2.33;2.33;;;;;26.16;46.38;100632.03;5091722;27;45490;-71
2023/07/27 14:53:53;;;;;;;;;3.33;3.00;;;;;26.16;46.52;100642.94;5089014;27;45503;-71
2023/07/27 14:56:23;;;;;;;;;2.67;2.67;;;;;26.12;45.81;100626.13;5092418;27;45576;-71
2023/07/27 14:58:52;;;;;;;;;2.00;2.00;;;;;26.08;46.10;100616.69;5083941;27;46049;-71
2023/07/27 15:01:17;;;;;;;;;3.00;3.00;;;;;26.17;45.82;100625.56;5084522;27;45520;-71
2023/07/27 15:03:42;;;;;;;;;3.00;3.00;;;;;26.15;46.38;100628.47;5093302;27;45704;-71
2023/07/27 15:06:08;;;;;;;;;2.67;2.67;;;;;26.15;46.46;100635.78;5087826;27;45402;-72
2023/07/27 15:08:33;;;;;;;;;3.33;2.00;;;;;26.07;46.13;100634.00;5093844;27;45508;-72
2023/07/27 15:10:58;;;;;;;;;2.67;2.67;;;;;26.14;46.27;100639.53;5093510;27;45509;-72
2023/07/27 15:13:24;;;;;;;;;2.00;2.00;;;;;26.16;45.90;100637.50;5088927;27;61856;-72
2023/07/27 15:15:49;;;;;;;;;4.00;2.00;;;;;26.15;45.72;100633.06;5080608;27;45737;-72
2023/07/27 15:18:16;;;;;;;;;1.33;1.33;;;;;26.15;46.39;100650.22;5091566;27;45439;-72
2023/07/27 15:20:42;;;;;;;;;4.00;4.00;;;;;26.16;45.97;100648.38;5090364;27;45402;-71
2023/07/27 15:23:08;;;;;;;;;2.00;2.00;;;;;26.15;45.76;100644.78;5093898;27;45543;-71
2023/07/27 15:25:34;;;;;;;;;3.00;3.00;;;;;26.15;45.75;100646.66;5087422;27;45913;-71
2023/07/27 15:28:04;;;;;;;;;1.33;1.33;;;;;26.13;45.93;100640.56;5090113;27;47100;-72
2023/07/27 15:30:32;;;;;;;;;4.00;4.00;;;;;26.16;45.89;100641.03;5077569;27;45661;-71
2023/07/27 15:32:59;;;;;;;;;7.00;4.00;;;;;26.15;46.18;100635.78;5082005;27;45416;-71
2023/07/27 15:35:24;;;;;;;;;3.00;3.00;;;;;26.14;46.36;100643.09;5086198;27;45555;-70
2023/07/27 15:37:49;;;;;;;;;5.67;4.00;;;;;26.15;46.44;100646.66;5092229;27;45437;-70
2023/07/27 15:40:15;;;;;;;;;2.00;2.00;;;;;26.15;45.76;100646.66;5089830;27;46122;-70
2023/07/27 15:42:40;;;;;;;;;3.00;3.00;;;;;26.13;46.21;100649.59;5102891;27;45443;-70
2023/07/27 15:45:06;;;;;;;;;4.00;3.33;;;;;26.12;46.44;100642.44;5089002;27;45458;-69
2023/07/27 15:47:31;;;;;;;;;3.67;3.67;;;;;26.13;45.80;100635.13;5086239;27;45703;-70
2023/07/27 15:49:57;;;;;;;;;3.00;3.00;;;;;26.11;46.15;100648.91;5087563;27;45679;-70
2023/07/27 15:52:22;;;;;;;;;3.33;3.33;;;;;26.13;45.69;100644.16;5092892;27;45512;-69
2023/07/27 15:54:47;;;;;;;;;2.67;2.67;;;;;26.13;45.91;100640.56;5087984;27;45691;-69
2023/07/27 15:57:13;;;;;;;;;4.67;3.00;;;;;26.13;45.59;100637.84;5094173;27;45890;-69
2023/07/27 15:59:38;;;;;;;;;3.67;3.33;;;;;26.12;46.42;100630.72;5092505;27;50086;-68
2023/07/27 16:02:04;;;;;;;;;3.00;3.00;;;;;26.15;46.13;100641.22;5088446;27;45784;-68
2023/07/27 16:04:30;;;;;;;;;4.33;2.00;;;;;26.16;46.29;100640.22;5094464;27;45512;-69
2023/07/27 16:06:55;;;;;;;;;1.00;1.00;;;;;26.16;45.67;100629.31;5093349;27;46282;-69
2023/07/27 16:09:20;;;;;;;;;3.67;3.67;;;;;26.15;46.18;100633.91;5094725;27;45353;-69
2023/07/27 16:11:46;;;;;;;;;3.00;3.00;;;;;26.16;46.19;100622.00;5091728;27;45570;-68
2023/07/27 16:14:11;;;;;;;;;3.00;3.00;;;;;26.16;46.12;100623.88;5083934;27;45516;-68
2023/07/27 16:16:40;;;;;;;;;2.33;1.67;;;;;26.17;46.12;100622.84;5085449;27;46079;-69
2023/07/27 16:19:05;;;;;;;;;4.33;4.33;;;;;26.16;46.36;100629.31;5091364;27;45497;-69
2023/07/27 16:21:30;;;;;;;;;2.00;2.00;;;;;26.14;45.83;100621.34;5094814;27;46065;-69
2023/07/27 16:23:57;;;;;;;;;5.33;3.33;;;;;26.15;45.91;100617.59;5078449;27;47149;-71
2023/07/27 16:26:22;;;;;;;;;2.67;2.67;;;;;26.16;45.85;100621.16;5085467;27;46890;-69
2023/07/27 16:28:48;;;;;;;;;5.67;4.33;;;;;26.17;46.57;100628.28;5080262;27;45577;-68
2023/07/27 16:31:13;;;;;;;;;3.67;3.67;;;;;26.14;46.43;100629.50;5089046;27;45559;-70
2023/07/27 16:33:38;;;;;;;;;4.67;4.67;;;;;26.17;46.53;100636.44;5094449;27;45415;-70
2023/07/27 16:36:13;;;;;;;;;3.00;3.00;;;;;26.16;45.72;100627.44;5083245;27;46127;-70
2023/07/27 16:38:39;;;;;;;;;1.00;1.00;;;;;26.18;46.06;100629.97;5084579;27;45618;-70
2023/07/27 16:41:10;;;;;;;;;2.67;2.67;;;;;26.16;46.12;100621.16;5092221;27;45354;-69
2023/07/27 16:43:36;;;;;;;;;2.67;2.33;;;;;26.18;46.37;100616.38;5084960;27;45446;-70
2023/07/27 16:46:01;;;;;;;;;4.00;4.00;;;;;26.20;45.69;100616.19;5094166;27;45524;-70
2023/07/27 16:48:26;;;;;;;;;3.67;3.00;;;;;26.18;45.79;100611.78;5084145;27;51118;-70
2023/07/27 16:50:52;;;;;;;;;5.00;4.00;;;;;26.17;46.39;100596.47;5093305;27;45711;-71
2023/07/27 16:53:17;;;;;;;;;3.33;2.00;;;;;26.20;45.66;100599.88;5090621;27;45705;-70
2023/07/27 16:55:43;;;;;;;;;2.00;1.00;;;;;26.21;45.96;100596.09;5091678;27;47311;-71
2023/07/27 16:58:08;;;;;;;;;3.33;3.00;;;;;26.19;45.94;100593.56;5086300;27;50761;-70
2023/07/27 17:00:34;;;;;;;;;3.00;3.00;;;;;26.16;46.38;100593.97;5092604;27;51251;-68
2023/07/27 17:03:00;;;;;;;;;4.00;4.00;;;;;26.17;46.61;100588.31;5079291;27;45362;-68
2023/07/27 17:05:25;;;;;;;;;4.33;4.33;;;;;26.17;46.52;100585.59;5084341;27;46285;-68
2023/07/27 17:07:50;;;;;;;;;4.00;3.00;;;;;26.17;46.39;100582.06;5089712;27;45894;-69
2023/07/27 17:10:16;;;;;;;;;2.00;2.00;;;;;26.18;46.04;100584.59;5084938;27;45466;-68
2023/07/27 17:12:41;;;;;;;;;4.00;3.00;;;;;26.15;46.33;100582.22;5083911;27;45457;-68
2023/07/27 17:15:07;;;;;;;;;3.67;2.33;;;;;26.17;46.17;100582.88;5091039;27;45401;-69
2023/07/27 17:17:32;;;;;;;;;1.33;1.33;;;;;26.16;46.45;100581.19;5092155;27;45574;-69
2023/07/27 17:19:57;;;;;;;;;5.00;3.00;;;;;26.16;46.38;100583.91;5091537;27;56491;-70
2023/07/27 17:22:23;;;;;;;;;4.00;3.33;;;;;26.16;46.26;100583.09;5098321;27;45545;-69
2023/07/27 17:24:48;;;;;;;;;4.00;2.67;;;;;26.18;46.40;100589.16;5077946;27;54534;-70
2023/07/27 17:27:13;;;;;;;;;5.00;5.00;;;;;26.18;45.89;100578.28;5089939;27;58881;-70
2023/07/27 17:29:41;;;;;;;;;3.67;3.00;;;;;26.17;46.74;100579.31;5075212;27;46227;-70